createdAt,value
2022-11-24T00:01:54.088Z,99699.12
2022-11-24T00:04:24.538Z,99698.20
2022-11-24T00:06:55.011Z,99702.20
2022-11-24T00:09:25.441Z,99704.33
2022-11-24T00:11:55.877Z,99706.10
2022-11-24T00:14:26.606Z,99706.15
2022-11-24T00:16:59.892Z,99704.11
2022-11-24T00:19:30.380Z,99706.54
2022-11-24T00:22:00.749Z,99706.40
2022-11-24T00:24:31.506Z,99705.55
2022-11-24T00:27:02.064Z,99710.70
2022-11-24T00:29:32.533Z,99709.43
2022-11-24T00:32:05.904Z,99710.35
2022-11-24T00:34:36.443Z,99715.95
2022-11-24T00:37:06.872Z,99714.34
2022-11-24T00:39:37.325Z,99717.23
2022-11-24T00:42:07.813Z,99714.39
2022-11-24T00:44:38.376Z,99717.25
2022-11-24T00:47:09.078Z,99725.02
2022-11-24T00:49:39.612Z,99723.07
2022-11-24T00:52:09.994Z,99731.71
2022-11-24T00:54:40.377Z,99735.34
2022-11-24T00:57:13.378Z,99745.06
2022-11-24T00:59:43.875Z,99750.48
2022-11-24T01:02:14.324Z,99754.49
2022-11-24T01:04:44.958Z,99756.11
2022-11-24T01:07:18.007Z,99759.27
2022-11-24T01:09:48.498Z,99761.66
2022-11-24T01:12:18.806Z,99765.10
2022-11-24T01:14:49.190Z,99771.02
2022-11-24T01:17:19.821Z,99778.77
2022-11-24T01:19:51.350Z,99784.84
2022-11-24T01:22:21.706Z,99788.05
2022-11-24T01:24:52.200Z,99791.08
2022-11-24T01:27:22.619Z,99790.39
2022-11-24T01:29:53.073Z,99791.28
2022-11-24T01:32:23.674Z,99789.69
2022-11-24T01:34:54.449Z,99792.41
2022-11-24T01:37:24.852Z,99790.23
2022-11-24T01:39:55.320Z,99796.30
2022-11-24T01:42:26.013Z,99800.86
2022-11-24T01:45:27.170Z,99801.92
2022-11-24T01:47:58.178Z,99801.81
2022-11-24T01:50:29.242Z,99807.65
2022-11-24T01:52:59.877Z,99809.63
2022-11-24T01:55:35.663Z,99811.43
2022-11-24T01:58:09.172Z,99817.12
2022-11-24T02:00:41.281Z,99818.69
2022-11-24T02:03:14.283Z,99815.64
2022-11-24T02:05:49.953Z,99820.61
2022-11-24T02:08:29.134Z,99824.33
2022-11-24T02:11:00.749Z,99827.31
2022-11-24T02:13:31.274Z,99823.64
2022-11-24T02:16:03.435Z,99822.27
2022-11-24T02:18:34.276Z,99821.13
2022-11-24T02:21:04.992Z,99815.67
2022-11-24T02:23:43.757Z,99812.89
2022-11-24T02:26:22.525Z,99814.14
2022-11-24T02:28:53.572Z,99817.08
2022-11-24T02:31:24.318Z,99812.58
2022-11-24T02:33:55.300Z,99815.40
2022-11-24T02:36:25.902Z,99818.58
2022-11-24T02:38:56.290Z,99818.10
2022-11-24T02:41:28.786Z,99816.09
2022-11-24T02:44:02.532Z,99813.41
2022-11-24T02:46:32.991Z,99812.71
2022-11-24T02:49:03.430Z,99815.45
2022-11-24T02:51:34.546Z,99820.89
2022-11-24T02:54:05.046Z,99822.42
2022-11-24T02:56:35.527Z,99817.89
2022-11-24T02:59:05.995Z,99816.51
2022-11-24T03:01:36.708Z,99812.40
2022-11-24T03:04:07.479Z,99809.30
2022-11-24T03:06:40.533Z,99815.52
2022-11-24T03:09:11.344Z,99819.00
2022-11-24T03:11:47.781Z,99823.70
2022-11-24T03:14:18.228Z,99828.30
2022-11-24T03:16:48.672Z,99832.90
2022-11-24T03:19:19.055Z,99835.60
2022-11-24T03:21:49.666Z,99833.23
2022-11-24T03:24:20.122Z,99837.29
2022-11-24T03:26:50.550Z,99839.86
2022-11-24T03:29:21.285Z,99843.66
2022-11-24T03:31:51.849Z,99844.16
2022-11-24T03:34:22.256Z,99844.14
2022-11-24T03:36:52.587Z,99844.81
2022-11-24T03:39:25.310Z,99841.63
2022-11-24T03:41:55.794Z,99840.06
2022-11-24T03:44:26.295Z,99840.64
2022-11-24T03:46:56.672Z,99836.10
2022-11-24T03:49:27.226Z,99841.73
2022-11-24T03:51:57.784Z,99835.48
2022-11-24T03:54:28.211Z,99833.66
2022-11-24T03:56:58.949Z,99833.68
2022-11-24T03:59:29.713Z,99836.95
2022-11-24T04:02:00.274Z,99837.25
2022-11-24T04:04:30.862Z,99842.11
2022-11-24T04:07:01.364Z,99842.17
2022-11-24T04:09:31.917Z,99841.49
2022-11-24T04:12:22.042Z,99843.46
2022-11-24T04:14:52.398Z,99847.16
2022-11-24T04:17:22.874Z,99851.78
2022-11-24T04:19:53.565Z,99850.90
2022-11-24T04:22:23.975Z,99847.13
2022-11-24T04:24:55.436Z,99842.60
2022-11-24T04:27:26.161Z,99850.02
2022-11-24T04:29:56.505Z,99852.48
2022-11-24T04:32:26.973Z,99857.63
2022-11-24T04:34:57.363Z,99860.67
2022-11-24T04:37:28.075Z,99864.90
2022-11-24T04:39:58.417Z,99862.27
2022-11-24T04:42:30.699Z,99864.26
2022-11-24T04:45:01.103Z,99865.38
2022-11-24T04:47:31.480Z,99867.39
2022-11-24T04:50:02.083Z,99879.30
2022-11-24T04:52:32.988Z,99879.00
2022-11-24T04:55:03.812Z,99872.77
2022-11-24T04:57:34.372Z,99877.55
2022-11-24T05:00:05.431Z,99880.11
2022-11-24T05:02:36.111Z,99883.64
2022-11-24T05:05:07.780Z,99889.39
2022-11-24T05:07:38.291Z,99894.99
2022-11-24T05:10:27.947Z,99899.01
2022-11-24T05:12:59.889Z,99904.98
2022-11-24T05:15:30.453Z,99909.62
2022-11-24T05:18:00.999Z,99910.89
2022-11-24T05:20:31.733Z,99910.42
2022-11-24T05:23:05.484Z,99910.74
2022-11-24T05:25:36.390Z,99910.84
2022-11-24T05:28:10.434Z,99911.02
2022-11-24T05:30:42.221Z,99913.73
2022-11-24T05:33:18.984Z,99914.30
2022-11-24T05:35:51.846Z,99915.63
2022-11-24T05:38:23.725Z,99921.54
2022-11-24T05:40:54.404Z,99924.60
2022-11-24T05:43:24.926Z,99929.73
2022-11-24T05:45:55.641Z,99928.95
2022-11-24T05:48:26.342Z,99937.14
2022-11-24T05:50:58.081Z,99937.52
2022-11-24T05:53:28.730Z,99940.49
2022-11-24T05:55:59.143Z,99945.73
2022-11-24T05:58:30.011Z,99945.55
2022-11-24T06:01:00.727Z,99942.70
2022-11-24T06:03:31.390Z,99944.84
2022-11-24T06:06:01.923Z,99943.98
2022-11-24T06:08:32.754Z,99937.90
2022-11-24T06:11:17.275Z,99939.49
2022-11-24T06:13:49.141Z,99940.20
2022-11-24T06:16:20.002Z,99947.08
2022-11-24T06:18:50.833Z,99951.34
2022-11-24T06:21:34.647Z,99950.45
2022-11-24T06:24:34.298Z,99946.00
2022-11-24T06:27:04.935Z,99949.56
2022-11-24T06:29:35.597Z,99953.05
2022-11-24T06:32:07.290Z,99956.37
2022-11-24T06:34:38.052Z,99965.14
2022-11-24T06:37:08.551Z,99967.08
2022-11-24T06:39:39.125Z,99974.27
2022-11-24T06:42:10.073Z,99979.39
2022-11-24T06:44:41.707Z,99980.59
2022-11-24T06:47:12.147Z,99989.99
2022-11-24T06:49:43.457Z,99994.65
2022-11-24T06:52:12.505Z,99999.98
2022-11-24T06:54:43.539Z,100000.20
2022-11-24T06:57:14.113Z,100002.15
2022-11-24T06:59:44.884Z,99996.70
2022-11-24T07:02:15.378Z,100002.80
2022-11-24T07:04:45.992Z,99999.85
2022-11-24T07:07:16.458Z,100004.16
2022-11-24T07:09:47.338Z,100006.03
2022-11-24T07:12:17.909Z,100011.38
2022-11-24T07:14:48.606Z,100017.86
2022-11-24T07:17:19.590Z,100018.95
2022-11-24T07:19:50.168Z,100022.50
2022-11-24T07:22:20.885Z,100024.23
2022-11-24T07:24:51.400Z,100021.44
2022-11-24T07:27:21.934Z,100030.02
2022-11-24T07:29:54.824Z,100032.42
2022-11-24T07:32:25.434Z,100034.69
2022-11-24T07:34:56.051Z,100035.89
2022-11-24T07:37:31.020Z,100036.24
2022-11-24T07:40:02.097Z,100040.19
2022-11-24T07:42:32.654Z,100047.71
2022-11-24T07:45:03.705Z,100055.23
2022-11-24T07:47:34.374Z,100063.42
2022-11-24T07:50:04.981Z,100062.19
2022-11-24T07:52:35.681Z,100060.77
2022-11-24T07:55:07.643Z,100062.27
2022-11-24T07:57:38.205Z,100061.53
2022-11-24T08:00:12.990Z,100063.23
2022-11-24T08:02:43.517Z,100068.62
2022-11-24T08:05:14.346Z,100073.31
2022-11-24T08:07:44.949Z,100075.73
2022-11-24T08:10:15.535Z,100076.21
2022-11-24T08:12:46.131Z,100082.45
2022-11-24T08:15:16.820Z,100089.77
2022-11-24T08:17:47.571Z,100094.13
2022-11-24T08:20:18.382Z,100099.55
2022-11-24T08:22:48.922Z,100098.27
2022-11-24T08:25:19.875Z,100095.13
2022-11-24T08:27:50.524Z,100094.42
2022-11-24T08:30:21.408Z,100097.77
2022-11-24T08:32:52.034Z,100103.81
2022-11-24T08:35:23.037Z,100101.42
2022-11-24T08:37:53.659Z,100106.98
2022-11-24T08:40:24.756Z,100107.12
2022-11-24T08:42:59.623Z,100110.61
2022-11-24T08:45:30.858Z,100110.34
2022-11-24T08:48:00.016Z,100114.71
2022-11-24T08:50:30.637Z,100118.86
2022-11-24T08:53:01.323Z,100118.67
2022-11-24T08:55:32.026Z,100120.39
2022-11-24T08:58:02.972Z,100132.14
2022-11-24T09:00:33.908Z,100134.98
2022-11-24T09:03:04.260Z,100142.19
2022-11-24T09:05:52.150Z,100141.30
2022-11-24T09:08:23.490Z,100146.80
2022-11-24T09:10:54.766Z,100149.84
2022-11-24T09:13:25.207Z,100149.89
2022-11-24T09:15:55.893Z,100157.42
2022-11-24T09:18:30.227Z,100153.09
2022-11-24T09:21:10.378Z,100153.63
2022-11-24T09:23:41.986Z,100150.64
2022-11-24T09:26:15.050Z,100145.46
2022-11-24T09:28:47.090Z,100145.69
2022-11-24T09:31:24.367Z,100148.89
2022-11-24T09:33:55.540Z,100154.08
2022-11-24T09:36:26.614Z,100165.16
2022-11-24T09:38:57.231Z,100171.33
2022-11-24T09:41:57.575Z,100176.05
2022-11-24T09:44:49.655Z,100183.39
2022-11-24T09:47:33.698Z,100189.03
2022-11-24T09:50:07.017Z,100189.46
2022-11-24T09:52:46.147Z,100190.73
2022-11-24T09:55:34.283Z,100193.13
2022-11-24T09:58:14.626Z,100203.91
2022-11-24T10:00:45.472Z,100200.77
2022-11-24T10:03:22.365Z,100201.94
2022-11-24T10:05:54.949Z,100206.48
2022-11-24T10:08:41.208Z,100211.95
2022-11-24T10:11:17.231Z,100218.98
2022-11-24T10:14:05.363Z,100223.48
2022-11-24T10:16:46.126Z,100223.82
2022-11-24T10:19:36.930Z,100218.95
2022-11-24T10:22:23.701Z,100212.14
2022-11-24T10:25:09.350Z,100214.77
2022-11-24T10:27:44.845Z,100213.84
2022-11-24T10:30:22.141Z,100213.98
2022-11-24T10:32:58.141Z,100218.59
2022-11-24T10:35:36.517Z,100220.67
2022-11-24T10:38:17.230Z,100218.66
2022-11-24T10:40:58.643Z,100220.30
2022-11-24T10:43:30.759Z,100221.63
2022-11-24T10:46:11.864Z,100218.25
2022-11-24T10:48:46.765Z,100212.34
2022-11-24T10:51:48.450Z,100212.16
2022-11-24T10:54:19.008Z,100213.17
2022-11-24T10:56:51.801Z,100209.18
2022-11-24T10:59:38.609Z,100209.01
2022-11-24T11:02:33.810Z,100213.05
2022-11-24T11:05:41.699Z,100218.31
2022-11-24T11:08:24.922Z,100217.90
2022-11-24T11:11:15.804Z,100219.89
2022-11-24T11:14:03.002Z,100220.84
2022-11-24T11:16:41.375Z,100217.66
2022-11-24T11:19:54.164Z,100218.80
2022-11-24T11:22:28.423Z,100222.58
2022-11-24T11:25:19.394Z,100222.77
2022-11-24T11:27:50.629Z,100226.63
2022-11-24T11:36:17.509Z,100235.39
2022-11-24T11:38:49.996Z,100235.61
2022-11-24T11:41:25.625Z,100236.98
2022-11-24T11:44:06.034Z,100237.00
2022-11-24T11:46:36.866Z,100238.88
2022-11-24T11:49:10.955Z,100239.38
2022-11-24T11:52:03.419Z,100239.98
2022-11-24T11:54:54.911Z,100244.55
2022-11-24T11:57:31.646Z,100242.88
2022-11-24T12:00:12.255Z,100245.64
2022-11-24T12:03:10.527Z,100251.54
2022-11-24T12:05:52.159Z,100258.52
2022-11-24T12:09:03.182Z,100259.52
2022-11-24T12:11:39.557Z,100258.34
2022-11-24T12:14:32.264Z,100257.59
2022-11-24T12:17:08.715Z,100255.17
2022-11-24T12:20:00.468Z,100259.10
2022-11-24T12:22:44.061Z,100261.44
2022-11-24T12:25:27.956Z,100264.34
2022-11-24T12:28:08.795Z,100264.46
2022-11-24T12:30:48.324Z,100265.36
2022-11-24T12:33:38.302Z,100265.35
2022-11-24T12:36:24.455Z,100260.55
2022-11-24T12:39:03.059Z,100262.67
2022-11-24T12:41:48.501Z,100262.48
2022-11-24T12:44:36.727Z,100263.98
2022-11-24T12:47:17.043Z,100269.63
2022-11-24T12:50:01.186Z,100268.77
2022-11-24T12:52:36.742Z,100271.23
2022-11-24T12:55:13.765Z,100270.98
2022-11-24T12:57:51.286Z,100275.22
2022-11-24T13:00:25.084Z,100276.11
2022-11-24T13:03:12.894Z,100273.28
2022-11-24T13:05:53.513Z,100274.89
2022-11-24T13:08:24.924Z,100275.70
2022-11-24T13:10:57.401Z,100280.17
2022-11-24T13:13:50.339Z,100279.42
2022-11-24T13:16:48.762Z,100275.55
2022-11-24T13:19:18.431Z,100278.79
2022-11-24T13:22:03.920Z,100283.16
2022-11-24T13:24:36.908Z,100279.88
2022-11-24T13:27:30.068Z,100282.73
2022-11-24T13:30:00.865Z,100280.42
2022-11-24T13:33:03.756Z,100285.10
2022-11-24T13:35:34.415Z,100285.69
2022-11-24T13:38:24.980Z,100287.15
2022-11-24T13:41:13.486Z,100289.36
2022-11-24T13:44:26.283Z,100286.94
2022-11-24T13:47:05.774Z,100286.30
2022-11-24T13:49:46.431Z,100286.69
2022-11-24T13:52:58.107Z,100283.41
2022-11-24T13:55:39.869Z,100278.79
2022-11-24T13:58:31.279Z,100279.09
2022-11-24T14:01:17.870Z,100275.25
2022-11-24T14:04:43.336Z,100272.39
2022-11-24T14:07:13.974Z,100272.17
2022-11-24T14:09:48.268Z,100278.02
2022-11-24T14:12:21.240Z,100280.45
2022-11-24T14:14:53.588Z,100284.38
2022-11-24T14:17:27.652Z,100289.16
2022-11-24T14:19:59.505Z,100291.61
2022-11-24T14:22:35.904Z,100286.55
2022-11-24T14:25:17.214Z,100280.22
2022-11-24T14:27:46.829Z,100276.69
2022-11-24T14:30:23.734Z,100279.06
2022-11-24T14:32:58.873Z,100275.00
2022-11-24T14:35:33.627Z,100275.63
2022-11-24T14:38:05.957Z,100280.18
2022-11-24T14:40:48.377Z,100280.98
2022-11-24T14:43:28.381Z,100283.80
2022-11-24T14:46:03.245Z,100286.19
2022-11-24T14:48:37.609Z,100288.17
2022-11-24T14:51:15.578Z,100289.20
2022-11-24T14:53:49.453Z,100289.55
2022-11-24T14:56:29.769Z,100295.40
2022-11-24T14:59:01.175Z,100295.39
2022-11-24T15:01:35.276Z,100300.39
2022-11-24T15:04:54.213Z,100301.16
2022-11-24T15:07:27.221Z,100306.17
2022-11-24T15:10:01.164Z,100309.13
2022-11-24T15:12:42.364Z,100309.36
2022-11-24T15:15:21.829Z,100312.81
2022-11-24T15:17:55.916Z,100314.95
2022-11-24T15:20:30.808Z,100317.25
2022-11-24T15:23:24.559Z,100322.46
2022-11-24T15:25:56.116Z,100323.40
2022-11-24T15:28:27.430Z,100327.34
2022-11-24T15:30:57.671Z,100326.28
2022-11-24T15:33:29.126Z,100328.05
2022-11-24T15:35:58.533Z,100325.77
2022-11-24T15:38:29.321Z,100323.30
2022-11-24T15:41:02.404Z,100322.81
2022-11-24T15:43:34.873Z,100322.83
2022-11-24T15:46:07.213Z,100325.85
2022-11-24T15:48:38.333Z,100326.81
2022-11-24T15:51:14.413Z,100327.36
2022-11-24T15:53:48.263Z,100332.52
2022-11-24T15:56:26.844Z,100333.30
2022-11-24T15:59:00.096Z,100342.44
2022-11-24T16:01:33.835Z,100344.75
2022-11-24T16:04:04.770Z,100343.39
2022-11-24T16:06:35.358Z,100341.83
2022-11-24T16:09:06.087Z,100344.23
2022-11-24T16:11:39.664Z,100344.66
2022-11-24T16:14:10.223Z,100345.03
2022-11-24T16:16:41.506Z,100353.52
2022-11-24T16:19:11.168Z,100360.25
2022-11-24T16:21:42.153Z,100363.18
2022-11-24T16:24:12.909Z,100367.86
2022-11-24T16:26:44.517Z,100371.63
2022-11-24T16:29:14.947Z,100369.02
2022-11-24T16:31:47.267Z,100367.90
2022-11-24T16:34:18.015Z,100365.12
2022-11-24T16:36:48.508Z,100364.09
2022-11-24T16:39:19.219Z,100365.40
2022-11-24T16:41:49.887Z,100369.84
2022-11-24T16:44:20.561Z,100373.70
2022-11-24T16:46:50.911Z,100372.66
2022-11-24T16:49:22.024Z,100378.14
2022-11-24T16:51:52.421Z,100376.31
2022-11-24T16:54:23.191Z,100377.95
2022-11-24T16:56:54.105Z,100375.05
2022-11-24T16:59:24.876Z,100373.85
2022-11-24T17:01:55.603Z,100368.66
2022-11-24T17:04:26.766Z,100368.67
2022-11-24T17:06:58.662Z,100367.04
2022-11-24T17:09:29.943Z,100370.69
2022-11-24T17:12:00.701Z,100374.16
2022-11-24T17:14:31.432Z,100375.38
2022-11-24T17:17:03.399Z,100373.41
2022-11-24T17:19:35.737Z,100374.84
2022-11-24T17:22:06.590Z,100374.11
2022-11-24T17:24:37.643Z,100370.77
2022-11-24T17:27:09.864Z,100370.63
2022-11-24T17:29:41.136Z,100375.53
2022-11-24T17:32:12.313Z,100379.34
2022-11-24T17:34:43.406Z,100377.33
2022-11-24T17:37:14.170Z,100378.13
2022-11-24T17:40:05.701Z,100375.05
2022-11-24T17:42:36.968Z,100381.64
2022-11-24T17:45:08.562Z,100380.80
2022-11-24T17:47:39.062Z,100377.73
2022-11-24T17:50:12.101Z,100382.87
2022-11-24T17:52:42.555Z,100383.81
2022-11-24T17:55:13.276Z,100385.00
2022-11-24T17:57:43.904Z,100390.38
2022-11-24T18:00:16.677Z,100391.16
2022-11-24T18:02:47.310Z,100394.23
2022-11-24T18:05:18.053Z,100391.38
2022-11-24T18:07:48.783Z,100394.93
2022-11-24T18:10:19.978Z,100403.22
2022-11-24T18:12:50.524Z,100404.80
2022-11-24T18:15:21.213Z,100406.04
2022-11-24T18:17:54.112Z,100404.98
2022-11-24T18:20:26.485Z,100402.08
2022-11-24T18:23:05.461Z,100403.05
2022-11-24T18:25:37.234Z,100405.88
2022-11-24T18:28:08.245Z,100412.99
2022-11-24T18:30:38.860Z,100411.60
2022-11-24T18:33:09.658Z,100406.88
2022-11-24T18:35:40.383Z,100399.98
2022-11-24T18:38:11.337Z,100399.05
2022-11-24T18:40:42.444Z,100396.16
2022-11-24T18:43:12.987Z,100397.98
2022-11-24T18:45:43.677Z,100402.10
2022-11-24T18:48:14.261Z,100407.63
2022-11-24T18:50:44.963Z,100405.08
2022-11-24T18:53:15.563Z,100402.60
2022-11-24T18:55:54.370Z,100401.66
2022-11-24T18:58:26.909Z,100399.49
2022-11-24T19:01:06.259Z,100398.70
2022-11-24T19:03:37.533Z,100394.23
2022-11-24T19:06:11.334Z,100397.08
2022-11-24T19:08:41.969Z,100394.00
2022-11-24T19:11:19.562Z,100389.55
2022-11-24T19:13:50.556Z,100383.38
2022-11-24T19:16:22.436Z,100376.83
2022-11-24T19:18:54.563Z,100376.90
2022-11-24T19:21:25.767Z,100370.66
2022-11-24T19:24:01.216Z,100371.78
2022-11-24T19:26:35.062Z,100372.19
2022-11-24T19:29:06.984Z,100375.20
2022-11-24T19:31:39.400Z,100370.75
2022-11-24T19:34:10.440Z,100368.92
2022-11-24T19:36:43.206Z,100369.54
2022-11-24T19:39:16.632Z,100363.42
2022-11-24T19:41:47.486Z,100367.92
2022-11-24T19:44:18.638Z,100375.21
2022-11-24T19:46:49.335Z,100374.83
2022-11-24T19:49:20.717Z,100376.95
2022-11-24T19:51:51.279Z,100380.48
2022-11-24T19:54:21.904Z,100383.86
2022-11-24T19:56:55.365Z,100385.86
2022-11-24T19:59:26.426Z,100381.05
2022-11-24T20:02:00.298Z,100377.27
2022-11-24T20:04:32.946Z,100374.86
2022-11-24T20:07:03.887Z,100374.21
2022-11-24T20:09:34.468Z,100372.15
2022-11-24T20:12:09.747Z,100371.61
2022-11-24T20:14:40.672Z,100370.91
2022-11-24T20:17:13.172Z,100367.37
2022-11-24T20:19:43.960Z,100365.25
2022-11-24T20:22:14.625Z,100371.31
2022-11-24T20:24:45.988Z,100367.14
2022-11-24T20:27:15.209Z,100368.42
2022-11-24T20:29:47.052Z,100371.80
2022-11-24T20:32:20.208Z,100373.06
2022-11-24T20:34:50.849Z,100379.17
2022-11-24T20:37:21.573Z,100381.64
2022-11-24T20:39:53.183Z,100383.16
2022-11-24T20:42:23.728Z,100380.85
2022-11-24T20:44:54.348Z,100378.95
2022-11-24T20:47:24.918Z,100375.17
2022-11-24T20:49:55.587Z,100379.58
2022-11-24T20:52:26.233Z,100378.56
2022-11-24T20:55:03.635Z,100379.34
2022-11-24T20:57:34.341Z,100382.15
2022-11-24T21:00:05.681Z,100382.19
2022-11-24T21:02:34.856Z,100383.77
2022-11-24T21:05:06.579Z,100382.02
2022-11-24T21:07:37.082Z,100382.02
2022-11-24T21:10:09.066Z,100381.70
2022-11-24T21:12:39.887Z,100385.70
2022-11-24T21:15:11.784Z,100384.64
2022-11-24T21:17:42.224Z,100380.30
2022-11-24T21:20:13.617Z,100377.84
2022-11-24T21:22:42.752Z,100379.41
2022-11-24T21:25:13.379Z,100381.38
2022-11-24T21:27:44.147Z,100385.84
2022-11-24T21:30:16.150Z,100396.34
2022-11-24T21:32:46.649Z,100394.98
2022-11-24T21:35:17.550Z,100400.31
2022-11-24T21:37:48.018Z,100404.54
2022-11-24T21:40:18.577Z,100403.38
2022-11-24T21:42:49.125Z,100402.90
2022-11-24T21:45:19.880Z,100403.26
2022-11-24T21:47:50.436Z,100402.04
2022-11-24T21:50:21.001Z,100403.64
2022-11-24T21:52:51.693Z,100405.91
2022-11-24T21:55:22.482Z,100404.16
2022-11-24T21:57:53.163Z,100397.14
2022-11-24T22:00:24.412Z,100398.33
2022-11-24T22:02:56.804Z,100398.75
2022-11-24T22:05:27.843Z,100396.20
2022-11-24T22:07:58.834Z,100396.45
2022-11-24T22:10:32.105Z,100396.66
2022-11-24T22:13:05.628Z,100401.04
2022-11-24T22:15:36.165Z,100398.45
2022-11-24T22:18:06.818Z,100396.40
2022-11-24T22:20:37.495Z,100395.23
2022-11-24T22:23:08.148Z,100395.50
2022-11-24T22:25:38.569Z,100399.21
2022-11-24T22:28:09.127Z,100398.02
2022-11-24T22:30:39.856Z,100399.84
2022-11-24T22:33:13.388Z,100400.91
2022-11-24T22:35:43.855Z,100396.95
2022-11-24T22:38:14.499Z,100396.63
2022-11-24T22:40:44.960Z,100397.72
2022-11-24T22:43:20.132Z,100393.76
2022-11-24T22:45:53.587Z,100394.33
2022-11-24T22:48:24.239Z,100389.77
2022-11-24T22:50:54.653Z,100386.97
2022-11-24T22:53:25.190Z,100394.07
2022-11-24T22:55:55.624Z,100395.27
2022-11-24T22:58:26.437Z,100397.73
2022-11-24T23:01:04.245Z,100393.22
2022-11-24T23:03:38.319Z,100391.33
2022-11-24T23:06:13.053Z,100395.89
2022-11-24T23:08:43.806Z,100400.80
2022-11-24T23:11:16.273Z,100405.52
2022-11-24T23:13:47.459Z,100403.75
2022-11-24T23:16:19.742Z,100405.33
2022-11-24T23:18:53.910Z,100406.88
2022-11-24T23:21:26.036Z,100403.97
2022-11-24T23:23:57.611Z,100401.34
2022-11-24T23:26:30.467Z,100398.04
2022-11-24T23:29:01.409Z,100398.69
2022-11-24T23:31:32.200Z,100399.40
2022-11-24T23:34:04.468Z,100401.02
2022-11-24T23:36:35.395Z,100404.66
2022-11-24T23:39:08.041Z,100402.23
2022-11-24T23:41:38.557Z,100398.92
2022-11-24T23:44:09.529Z,100403.44
2022-11-24T23:46:40.040Z,100403.63
2022-11-24T23:49:10.904Z,100402.93
2022-11-24T23:51:42.034Z,100395.09
2022-11-24T23:54:12.973Z,100394.97
2022-11-24T23:56:43.492Z,100392.05
2022-11-24T23:59:14.511Z,100391.89
